Airfield :
LOGIN :

Register | Disclaimer

   EN    FR    IT 

 










Legend :    VFR   Marginal VFR   IFR   Intensive IFR   Very Intensive IFR
Visi :
Ceiling :
>= 8 km
>= 3000ft
5 to 8 km
1000 to 3000 ft
1500m to 5 km
500 to 1000 ft
800 to 1500m
200 to 500 ft
< 800m
< 200 ft
Symbols :   Thunderstorms  Fog  Heavy snow  Heavy precipitations  Wind > 20 kt
SIGMETs :     Misc.  Thunderstorms  Icing  Turbulence  Mountain Waves  Volcanic Ashes







- Airport Elevation : 645 ft
- IATA code : DLE
- Download approach charts


LFGJ - Dole Tavaux

CURRENT METAR :
  • 181530Z AUTO 19020KT 9999 -RA FEW012/// OVC021/// ///TCU 07/06 Q1012 TEMPO 20022G35KT 4000 RA BKN012

EXPIRED METARs :
  • 181500Z AUTO 19020KT 9999 -RA FEW015/// OVC022/// ///TCU 07/06 Q1012 TEMPO 20022G35KT 4000 RA BKN012
  • 181430Z AUTO 19021KT 9999 -RA FEW014/// OVC020/// ///TCU 07/06 Q1012 TEMPO 20022G35KT 4000 RA BKN012
  • 181400Z AUTO 19018KT 9999 -RA SCT013/// OVC021/// ///TCU 07/06 Q1012 TEMPO 20025G35KT 4000 RA BKN012
  • 181330Z AUTO 19020KT 9999 -RA FEW012/// OVC021/// ///TCU 07/06 Q1012 TEMPO 20025G35KT 4000 RA BKN012
  • 181300Z AUTO 19022KT 9999 BKN019 OVC025 07/05 Q1013 TEMPO 20025G35KT 4000 RA BKN012

TAF TAF LFGJ
Valid from the 18 at 15:00 until the 19 at 00:00 UTC


181400Z 1815/1824 20020KT 9999 FEW012 BKN025
TEMPO 1815/1817 20022G35KT
PROB40
TEMPO 1815/1822 4000 RA BKN012
No reported NOTAMs for that airfield.
1 SIGMET reported for the Reims FIR (LFEE) :
 
Severe turbulence
LFEE SIGMET 7 VALID 181300/181700 LFPW
LFEE REIMS FIR/UIR SEV TURB FCST NE OF LINE N4645 E00630 - N4745 E00500 SFC/FL060 MOV SE 20KT NC=



MET'MAP, your aeronautical weather chart ! - Copyright ORBIFLY December 2007 - Disclaimer

ORBIFLY MET'MAP TEAM :

Programming & Development : Alexandra Zaïnal
Concept & Development : Baudouin d'Aumeries
Co-Development & Prog : Marc-Olivier Méhu
Technical & hardware support : Manuel Goepfert

Contact : metmap@orbifly.com




SOURCES & CREDITS :

   NOAA